sensor_id;sensor_type;location;lat;lon;timestamp;pressure;altitude;pressure_sealevel;temperature;humidity
3917;BME280;1973;50.518;7.318;2023-06-14T00:02:21;100633.03;;;17.34;68.03
3917;BME280;1973;50.518;7.318;2023-06-14T00:04:48;100632.72;;;17.30;68.10
3917;BME280;1973;50.518;7.318;2023-06-14T00:07:17;100629.63;;;17.27;68.49
3917;BME280;1973;50.518;7.318;2023-06-14T00:09:45;100625.16;;;17.26;68.61
3917;BME280;1973;50.518;7.318;2023-06-14T00:12:12;100624.03;;;17.22;69.16
3917;BME280;1973;50.518;7.318;2023-06-14T00:14:38;100623.72;;;17.18;69.98
3917;BME280;1973;50.518;7.318;2023-06-14T00:17:05;100634.50;;;17.15;70.24
3917;BME280;1973;50.518;7.318;2023-06-14T00:19:33;100631.16;;;17.13;70.78
3917;BME280;1973;50.518;7.318;2023-06-14T00:22:02;100629.16;;;17.08;71.05
3917;BME280;1973;50.518;7.318;2023-06-14T00:24:29;100632.72;;;17.03;71.20
3917;BME280;1973;50.518;7.318;2023-06-14T00:26:56;100633.78;;;16.97;71.67
3917;BME280;1973;50.518;7.318;2023-06-14T00:29:23;100632.63;;;16.93;72.62
3917;BME280;1973;50.518;7.318;2023-06-14T00:31:49;100637.53;;;16.86;73.17
3917;BME280;1973;50.518;7.318;2023-06-14T00:34:16;100629.16;;;16.81;73.58
3917;BME280;1973;50.518;7.318;2023-06-14T00:36:43;100643.00;;;16.76;74.06
3917;BME280;1973;50.518;7.318;2023-06-14T00:39:09;100641.00;;;16.72;74.25
3917;BME280;1973;50.518;7.318;2023-06-14T00:41:36;100645.06;;;16.64;75.38
3917;BME280;1973;50.518;7.318;2023-06-14T00:44:02;100649.47;;;16.60;75.45
3917;BME280;1973;50.518;7.318;2023-06-14T00:46:29;100647.41;;;16.55;76.18
3917;BME280;1973;50.518;7.318;2023-06-14T00:48:56;100654.34;;;16.53;76.82
3917;BME280;1973;50.518;7.318;2023-06-14T00:51:23;100653.47;;;16.47;77.92
3917;BME280;1973;50.518;7.318;2023-06-14T00:53:50;100647.28;;;16.45;77.85
3917;BME280;1973;50.518;7.318;2023-06-14T00:56:17;100650.03;;;16.40;78.71
3917;BME280;1973;50.518;7.318;2023-06-14T00:58:47;100653.91;;;16.39;79.21
3917;BME280;1973;50.518;7.318;2023-06-14T01:01:14;100649.72;;;16.37;79.41
3917;BME280;1973;50.518;7.318;2023-06-14T01:03:40;100650.19;;;16.34;79.53
3917;BME280;1973;50.518;7.318;2023-06-14T01:06:18;100663.53;;;16.32;80.39
3917;BME280;1973;50.518;7.318;2023-06-14T01:09:03;100655.94;;;16.27;80.77
3917;BME280;1973;50.518;7.318;2023-06-14T01:11:41;100664.78;;;16.24;80.80
3917;BME280;1973;50.518;7.318;2023-06-14T01:14:12;100668.94;;;16.22;80.61
3917;BME280;1973;50.518;7.318;2023-06-14T01:16:40;100671.38;;;16.18;80.82
3917;BME280;1973;50.518;7.318;2023-06-14T01:21:48;100670.97;;;16.10;81.99
3917;BME280;1973;50.518;7.318;2023-06-14T01:24:17;100668.72;;;16.06;81.82
3917;BME280;1973;50.518;7.318;2023-06-14T01:26:46;100664.75;;;16.02;82.69
3917;BME280;1973;50.518;7.318;2023-06-14T01:29:18;100662.75;;;15.98;82.89
3917;BME280;1973;50.518;7.318;2023-06-14T01:31:45;100667.13;;;15.94;83.38
3917;BME280;1973;50.518;7.318;2023-06-14T01:34:12;100677.66;;;15.92;83.81
3917;BME280;1973;50.518;7.318;2023-06-14T01:36:41;100669.84;;;15.89;84.02
3917;BME280;1973;50.518;7.318;2023-06-14T01:39:08;100672.53;;;15.84;84.37
3917;BME280;1973;50.518;7.318;2023-06-14T01:41:36;100670.81;;;15.83;84.57
3917;BME280;1973;50.518;7.318;2023-06-14T01:44:04;100670.50;;;15.79;85.15
3917;BME280;1973;50.518;7.318;2023-06-14T01:46:31;100671.00;;;15.76;85.32
3917;BME280;1973;50.518;7.318;2023-06-14T01:48:58;100676.56;;;15.76;85.19
3917;BME280;1973;50.518;7.318;2023-06-14T01:51:25;100677.06;;;15.73;85.64
3917;BME280;1973;50.518;7.318;2023-06-14T01:53:52;100676.72;;;15.70;86.07
3917;BME280;1973;50.518;7.318;2023-06-14T01:56:19;100682.00;;;15.71;86.17
3917;BME280;1973;50.518;7.318;2023-06-14T01:58:46;100674.19;;;15.68;85.85
3917;BME280;1973;50.518;7.318;2023-06-14T02:01:12;100677.25;;;15.67;86.29
3917;BME280;1973;50.518;7.318;2023-06-14T02:03:42;100670.84;;;15.66;86.69
3917;BME280;1973;50.518;7.318;2023-06-14T02:06:11;100678.22;;;15.61;87.12
3917;BME280;1973;50.518;7.318;2023-06-14T02:08:38;100678.75;;;15.57;87.65
3917;BME280;1973;50.518;7.318;2023-06-14T02:11:05;100679.47;;;15.53;87.86
3917;BME280;1973;50.518;7.318;2023-06-14T02:13:31;100679.38;;;15.48;88.81
3917;BME280;1973;50.518;7.318;2023-06-14T02:15:58;100680.47;;;15.47;88.52
3917;BME280;1973;50.518;7.318;2023-06-14T02:18:26;100689.31;;;15.44;88.77
3917;BME280;1973;50.518;7.318;2023-06-14T02:20:52;100683.88;;;15.37;89.19
3917;BME280;1973;50.518;7.318;2023-06-14T02:23:19;100677.19;;;15.33;89.54
3917;BME280;1973;50.518;7.318;2023-06-14T02:25:46;100683.19;;;15.30;89.69
3917;BME280;1973;50.518;7.318;2023-06-14T02:28:12;100685.41;;;15.28;90.19
3917;BME280;1973;50.518;7.318;2023-06-14T02:30:39;100683.97;;;15.26;90.45
3917;BME280;1973;50.518;7.318;2023-06-14T02:33:07;100690.00;;;15.23;91.32
3917;BME280;1973;50.518;7.318;2023-06-14T02:35:33;100697.16;;;15.19;91.28
3917;BME280;1973;50.518;7.318;2023-06-14T02:38:00;100689.31;;;15.16;91.36
3917;BME280;1973;50.518;7.318;2023-06-14T02:40:27;100703.69;;;15.13;91.93
3917;BME280;1973;50.518;7.318;2023-06-14T02:42:53;100691.41;;;15.08;91.89
3917;BME280;1973;50.518;7.318;2023-06-14T02:45:20;100694.66;;;15.05;92.52
3917;BME280;1973;50.518;7.318;2023-06-14T02:47:47;100697.94;;;15.02;92.30
3917;BME280;1973;50.518;7.318;2023-06-14T02:50:14;100694.56;;;15.00;93.20
3917;BME280;1973;50.518;7.318;2023-06-14T02:52:41;100705.91;;;14.99;93.16
3917;BME280;1973;50.518;7.318;2023-06-14T02:55:10;100700.03;;;14.95;93.29
3917;BME280;1973;50.518;7.318;2023-06-14T02:57:37;100701.59;;;14.91;93.37
3917;BME280;1973;50.518;7.318;2023-06-14T03:00:04;100702.09;;;14.88;93.50
3917;BME280;1973;50.518;7.318;2023-06-14T03:02:31;100708.13;;;14.85;94.01
3917;BME280;1973;50.518;7.318;2023-06-14T03:04:58;100709.44;;;14.83;94.34
3917;BME280;1973;50.518;7.318;2023-06-14T03:07:28;100714.66;;;14.79;94.57
3917;BME280;1973;50.518;7.318;2023-06-14T03:09:55;100720.91;;;14.75;95.10
3917;BME280;1973;50.518;7.318;2023-06-14T03:12:22;100717.78;;;14.71;95.50
3917;BME280;1973;50.518;7.318;2023-06-14T03:14:50;100718.28;;;14.68;95.36
3917;BME280;1973;50.518;7.318;2023-06-14T03:17:17;100720.47;;;14.66;95.27
3917;BME280;1973;50.518;7.318;2023-06-14T03:19:45;100726.50;;;14.63;95.58
3917;BME280;1973;50.518;7.318;2023-06-14T03:22:12;100723.13;;;14.61;95.97
3917;BME280;1973;50.518;7.318;2023-06-14T03:24:39;100725.31;;;14.59;95.86
3917;BME280;1973;50.518;7.318;2023-06-14T03:27:05;100737.97;;;14.55;96.70
3917;BME280;1973;50.518;7.318;2023-06-14T03:29:32;100736.50;;;14.52;96.81
3917;BME280;1973;50.518;7.318;2023-06-14T03:32:00;100741.22;;;14.52;96.93
3917;BME280;1973;50.518;7.318;2023-06-14T03:34:27;100737.59;;;14.51;97.17
3917;BME280;1973;50.518;7.318;2023-06-14T03:36:54;100745.91;;;14.51;97.07
3917;BME280;1973;50.518;7.318;2023-06-14T03:39:20;100743.38;;;14.50;97.11
3917;BME280;1973;50.518;7.318;2023-06-14T03:41:47;100755.53;;;14.49;97.53
3917;BME280;1973;50.518;7.318;2023-06-14T03:44:18;100752.78;;;14.49;97.88
3917;BME280;1973;50.518;7.318;2023-06-14T03:46:45;100759.66;;;14.46;98.00
3917;BME280;1973;50.518;7.318;2023-06-14T03:49:12;100759.66;;;14.46;97.96
3917;BME280;1973;50.518;7.318;2023-06-14T03:51:39;100764.13;;;14.47;98.11
3917;BME280;1973;50.518;7.318;2023-06-14T03:54:06;100758.22;;;14.44;98.31
3917;BME280;1973;50.518;7.318;2023-06-14T03:56:53;100765.69;;;14.43;98.60
3917;BME280;1973;50.518;7.318;2023-06-14T03:59:19;100771.44;;;14.42;98.38
3917;BME280;1973;50.518;7.318;2023-06-14T04:01:46;100774.22;;;14.42;99.00
3917;BME280;1973;50.518;7.318;2023-06-14T04:04:13;100770.38;;;14.43;98.86
3917;BME280;1973;50.518;7.318;2023-06-14T04:06:39;100771.22;;;14.43;98.62
3917;BME280;1973;50.518;7.318;2023-06-14T04:09:07;100777.84;;;14.42;98.93
3917;BME280;1973;50.518;7.318;2023-06-14T04:11:34;100774.22;;;14.42;98.35
3917;BME280;1973;50.518;7.318;2023-06-14T04:14:01;100779.75;;;14.42;98.45
3917;BME280;1973;50.518;7.318;2023-06-14T04:16:28;100789.75;;;14.43;98.88
3917;BME280;1973;50.518;7.318;2023-06-14T04:18:55;100782.66;;;14.47;99.56
3917;BME280;1973;50.518;7.318;2023-06-14T04:21:24;100785.78;;;14.50;99.23
3917;BME280;1973;50.518;7.318;2023-06-14T04:23:52;100789.75;;;14.54;99.24
3917;BME280;1973;50.518;7.318;2023-06-14T04:26:21;100793.47;;;14.60;99.37
3917;BME280;1973;50.518;7.318;2023-06-14T04:28:52;100794.31;;;14.60;99.51
3917;BME280;1973;50.518;7.318;2023-06-14T04:31:19;100796.59;;;14.63;99.37
3917;BME280;1973;50.518;7.318;2023-06-14T04:33:47;100793.03;;;14.63;98.94
3917;BME280;1973;50.518;7.318;2023-06-14T04:36:15;100801.34;;;14.63;99.27
3917;BME280;1973;50.518;7.318;2023-06-14T04:38:44;100799.63;;;14.62;99.48
3917;BME280;1973;50.518;7.318;2023-06-14T04:41:12;100803.00;;;14.64;99.73
3917;BME280;1973;50.518;7.318;2023-06-14T04:43:39;100804.81;;;14.70;100.00
3917;BME280;1973;50.518;7.318;2023-06-14T04:46:06;100800.84;;;14.78;99.95
3917;BME280;1973;50.518;7.318;2023-06-14T04:48:39;100808.41;;;14.82;99.32
3917;BME280;1973;50.518;7.318;2023-06-14T04:51:08;100799.84;;;14.84;98.85
3917;BME280;1973;50.518;7.318;2023-06-14T04:53:35;100809.59;;;14.86;99.05
3917;BME280;1973;50.518;7.318;2023-06-14T04:56:01;100800.19;;;14.87;99.38
3917;BME280;1973;50.518;7.318;2023-06-14T04:58:29;100809.09;;;14.89;99.50
3917;BME280;1973;50.518;7.318;2023-06-14T05:00:55;100804.28;;;14.96;99.42
3917;BME280;1973;50.518;7.318;2023-06-14T05:03:22;100813.31;;;15.03;99.22
3917;BME280;1973;50.518;7.318;2023-06-14T05:05:50;100817.88;;;15.09;99.23
3917;BME280;1973;50.518;7.318;2023-06-14T05:08:20;100805.78;;;15.16;99.22
3917;BME280;1973;50.518;7.318;2023-06-14T05:10:49;100814.56;;;15.24;99.64
3917;BME280;1973;50.518;7.318;2023-06-14T05:13:16;100808.88;;;15.31;100.00
3917;BME280;1973;50.518;7.318;2023-06-14T05:15:43;100812.34;;;15.38;100.00
3917;BME280;1973;50.518;7.318;2023-06-14T05:18:10;100813.03;;;15.45;100.00
3917;BME280;1973;50.518;7.318;2023-06-14T05:20:37;100813.81;;;15.52;99.74
3917;BME280;1973;50.518;7.318;2023-06-14T05:23:05;100818.44;;;15.63;99.07
3917;BME280;1973;50.518;7.318;2023-06-14T05:25:32;100813.09;;;15.73;98.59
3917;BME280;1973;50.518;7.318;2023-06-14T05:28:00;100815.19;;;15.83;97.69
3917;BME280;1973;50.518;7.318;2023-06-14T05:30:30;100821.78;;;15.93;97.34
3917;BME280;1973;50.518;7.318;2023-06-14T05:32:57;100818.94;;;16.05;96.26
3917;BME280;1973;50.518;7.318;2023-06-14T05:35:25;100822.22;;;16.19;95.57
3917;BME280;1973;50.518;7.318;2023-06-14T05:37:53;100823.50;;;16.28;94.69
3917;BME280;1973;50.518;7.318;2023-06-14T05:40:21;100818.94;;;16.38;93.08
3917;BME280;1973;50.518;7.318;2023-06-14T05:42:47;100825.25;;;16.50;91.83
3917;BME280;1973;50.518;7.318;2023-06-14T05:45:15;100819.03;;;16.60;91.32
3917;BME280;1973;50.518;7.318;2023-06-14T05:47:42;100820.88;;;16.71;90.41
3917;BME280;1973;50.518;7.318;2023-06-14T05:50:09;100817.41;;;16.81;89.51
3917;BME280;1973;50.518;7.318;2023-06-14T05:52:36;100818.06;;;16.88;88.96
3917;BME280;1973;50.518;7.318;2023-06-14T05:55:04;100822.06;;;16.97;88.32
3917;BME280;1973;50.518;7.318;2023-06-14T05:57:30;100821.38;;;17.07;88.19
3917;BME280;1973;50.518;7.318;2023-06-14T05:59:57;100826.22;;;17.16;87.87
3917;BME280;1973;50.518;7.318;2023-06-14T06:02:23;100828.28;;;17.26;87.49
3917;BME280;1973;50.518;7.318;2023-06-14T06:04:50;100822.59;;;17.37;87.20
3917;BME280;1973;50.518;7.318;2023-06-14T06:07:17;100825.25;;;17.49;86.23
3917;BME280;1973;50.518;7.318;2023-06-14T06:09:43;100821.50;;;17.60;85.80
3917;BME280;1973;50.518;7.318;2023-06-14T06:12:10;100827.19;;;17.70;85.22
3917;BME280;1973;50.518;7.318;2023-06-14T06:14:36;100830.09;;;17.80;84.86
3917;BME280;1973;50.518;7.318;2023-06-14T06:17:03;100825.72;;;17.89;84.32
3917;BME280;1973;50.518;7.318;2023-06-14T06:19:30;100819.69;;;17.97;85.16
3917;BME280;1973;50.518;7.318;2023-06-14T06:21:56;100819.22;;;18.06;84.77
3917;BME280;1973;50.518;7.318;2023-06-14T06:24:23;100821.50;;;18.14;84.88
3917;BME280;1973;50.518;7.318;2023-06-14T06:26:49;100820.75;;;18.23;83.34
3917;BME280;1973;50.518;7.318;2023-06-14T06:29:16;100824.75;;;18.32;82.63
3917;BME280;1973;50.518;7.318;2023-06-14T06:31:42;100832.09;;;18.43;81.71
3917;BME280;1973;50.518;7.318;2023-06-14T06:34:09;100829.41;;;18.54;80.17
3917;BME280;1973;50.518;7.318;2023-06-14T06:36:35;100830.56;;;18.63;79.35
3917;BME280;1973;50.518;7.318;2023-06-14T06:39:03;100825.63;;;18.75;78.19
3917;BME280;1973;50.518;7.318;2023-06-14T06:41:37;100831.31;;;18.90;76.07
3917;BME280;1973;50.518;7.318;2023-06-14T06:44:06;100832.50;;;19.04;74.34
3917;BME280;1973;50.518;7.318;2023-06-14T06:46:33;100833.41;;;19.15;72.49
3917;BME280;1973;50.518;7.318;2023-06-14T06:49:01;100837.63;;;19.22;71.16
3917;BME280;1973;50.518;7.318;2023-06-14T06:51:27;100837.97;;;19.31;70.03
3917;BME280;1973;50.518;7.318;2023-06-14T06:53:54;100832.97;;;19.38;67.26
3917;BME280;1973;50.518;7.318;2023-06-14T06:56:21;100839.16;;;19.45;66.43
3917;BME280;1973;50.518;7.318;2023-06-14T06:58:50;100835.84;;;19.53;65.77
3917;BME280;1973;50.518;7.318;2023-06-14T07:01:17;100839.25;;;19.65;64.55
3917;BME280;1973;50.518;7.318;2023-06-14T07:03:45;100844.00;;;19.75;62.90
3917;BME280;1973;50.518;7.318;2023-06-14T07:06:12;100837.34;;;19.86;61.61
3917;BME280;1973;50.518;7.318;2023-06-14T07:08:38;100835.41;;;19.97;60.56
3917;BME280;1973;50.518;7.318;2023-06-14T07:11:05;100837.09;;;20.08;59.88
3917;BME280;1973;50.518;7.318;2023-06-14T07:13:32;100825.09;;;20.17;59.38
3917;BME280;1973;50.518;7.318;2023-06-14T07:15:59;100835.44;;;20.27;58.60
3917;BME280;1973;50.518;7.318;2023-06-14T07:18:27;100841.06;;;20.37;57.71
3917;BME280;1973;50.518;7.318;2023-06-14T07:20:54;100839.38;;;20.46;56.56
3917;BME280;1973;50.518;7.318;2023-06-14T07:23:20;100834.34;;;20.53;55.36
3917;BME280;1973;50.518;7.318;2023-06-14T07:25:47;100836.59;;;20.61;55.34
3917;BME280;1973;50.518;7.318;2023-06-14T07:28:13;100843.84;;;20.67;54.34
3917;BME280;1973;50.518;7.318;2023-06-14T07:30:40;100836.56;;;20.71;53.97
3917;BME280;1973;50.518;7.318;2023-06-14T07:33:06;100844.41;;;20.74;52.10
3917;BME280;1973;50.518;7.318;2023-06-14T07:35:34;100834.88;;;20.75;50.39
3917;BME280;1973;50.518;7.318;2023-06-14T07:38:01;100826.47;;;20.85;51.07
3917;BME280;1973;50.518;7.318;2023-06-14T07:40:28;100836.25;;;20.98;51.04
3917;BME280;1973;50.518;7.318;2023-06-14T07:42:54;100838.75;;;21.10;50.61
3917;BME280;1973;50.518;7.318;2023-06-14T07:45:21;100839.00;;;21.18;50.17
3917;BME280;1973;50.518;7.318;2023-06-14T07:47:48;100834.50;;;21.27;50.06
3917;BME280;1973;50.518;7.318;2023-06-14T07:50:14;100836.72;;;21.35;49.27
3917;BME280;1973;50.518;7.318;2023-06-14T07:52:41;100830.22;;;21.45;49.75
3917;BME280;1973;50.518;7.318;2023-06-14T07:55:08;100829.91;;;21.52;48.73
3917;BME280;1973;50.518;7.318;2023-06-14T07:57:34;100827.34;;;21.60;48.04
3917;BME280;1973;50.518;7.318;2023-06-14T08:00:02;100833.75;;;21.71;47.74
3917;BME280;1973;50.518;7.318;2023-06-14T08:02:29;100830.63;;;21.77;47.70
3917;BME280;1973;50.518;7.318;2023-06-14T08:04:55;100820.22;;;21.83;47.56
3917;BME280;1973;50.518;7.318;2023-06-14T08:07:22;100831.94;;;21.90;47.10
3917;BME280;1973;50.518;7.318;2023-06-14T08:09:48;100824.38;;;21.96;46.99
3917;BME280;1973;50.518;7.318;2023-06-14T08:12:15;100824.88;;;22.03;46.75
3917;BME280;1973;50.518;7.318;2023-06-14T08:14:42;100829.34;;;22.09;46.12
3917;BME280;1973;50.518;7.318;2023-06-14T08:17:09;100829.00;;;22.15;46.30
3917;BME280;1973;50.518;7.318;2023-06-14T08:19:35;100825.88;;;22.22;46.10
3917;BME280;1973;50.518;7.318;2023-06-14T08:22:02;100816.28;;;22.28;45.42
3917;BME280;1973;50.518;7.318;2023-06-14T08:24:30;100808.94;;;22.32;45.40
3917;BME280;1973;50.518;7.318;2023-06-14T08:26:56;100811.44;;;22.39;45.16
3917;BME280;1973;50.518;7.318;2023-06-14T08:29:24;100812.53;;;22.43;45.19
3917;BME280;1973;50.518;7.318;2023-06-14T08:31:50;100812.78;;;22.46;45.21
3917;BME280;1973;50.518;7.318;2023-06-14T08:34:17;100813.31;;;22.48;44.74
3917;BME280;1973;50.518;7.318;2023-06-14T08:36:43;100800.59;;;22.56;44.80
3917;BME280;1973;50.518;7.318;2023-06-14T08:39:10;100806.47;;;22.59;44.19
3917;BME280;1973;50.518;7.318;2023-06-14T08:41:37;100802.19;;;22.67;43.73
3917;BME280;1973;50.518;7.318;2023-06-14T08:44:03;100809.75;;;22.71;43.59
3917;BME280;1973;50.518;7.318;2023-06-14T08:46:32;100807.38;;;22.84;42.95
3917;BME280;1973;50.518;7.318;2023-06-14T08:49:01;100801.09;;;22.92;43.05
3917;BME280;1973;50.518;7.318;2023-06-14T08:51:30;100800.44;;;23.00;42.20
3917;BME280;1973;50.518;7.318;2023-06-14T08:54:00;100803.44;;;23.08;42.37
3917;BME280;1973;50.518;7.318;2023-06-14T08:56:28;100798.06;;;23.12;41.84
3917;BME280;1973;50.518;7.318;2023-06-14T08:58:59;100796.88;;;23.18;41.08
3917;BME280;1973;50.518;7.318;2023-06-14T09:01:34;100791.72;;;23.25;39.98
3917;BME280;1973;50.518;7.318;2023-06-14T09:04:01;100793.63;;;23.29;40.81
3917;BME280;1973;50.518;7.318;2023-06-14T09:06:28;100804.50;;;23.36;40.00
3917;BME280;1973;50.518;7.318;2023-06-14T09:08:56;100799.38;;;23.43;39.85
3917;BME280;1973;50.518;7.318;2023-06-14T09:11:23;100802.38;;;23.52;39.34
3917;BME280;1973;50.518;7.318;2023-06-14T09:13:52;100802.00;;;23.58;38.02
3917;BME280;1973;50.518;7.318;2023-06-14T09:16:18;100800.47;;;23.66;38.29
3917;BME280;1973;50.518;7.318;2023-06-14T09:18:46;100807.72;;;23.72;38.16
3917;BME280;1973;50.518;7.318;2023-06-14T09:21:17;100806.72;;;23.82;37.94
3917;BME280;1973;50.518;7.318;2023-06-14T09:23:45;100801.34;;;23.85;37.51
3917;BME280;1973;50.518;7.318;2023-06-14T09:26:17;100805.16;;;23.94;36.61
3917;BME280;1973;50.518;7.318;2023-06-14T09:28:47;100805.88;;;24.00;37.80
3917;BME280;1973;50.518;7.318;2023-06-14T09:31:16;100804.38;;;24.07;38.02
3917;BME280;1973;50.518;7.318;2023-06-14T09:33:44;100815.25;;;24.14;37.16
3917;BME280;1973;50.518;7.318;2023-06-14T09:36:18;100810.69;;;24.18;36.59
3917;BME280;1973;50.518;7.318;2023-06-14T09:39:02;100815.00;;;24.29;34.74
3917;BME280;1973;50.518;7.318;2023-06-14T09:41:39;100812.13;;;24.34;36.24
3917;BME280;1973;50.518;7.318;2023-06-14T09:44:08;100812.25;;;24.43;35.88
3917;BME280;1973;50.518;7.318;2023-06-14T09:46:41;100803.94;;;24.51;35.92
3917;BME280;1973;50.518;7.318;2023-06-14T09:49:08;100806.97;;;24.55;35.99
3917;BME280;1973;50.518;7.318;2023-06-14T09:51:42;100808.16;;;24.67;35.40
3917;BME280;1973;50.518;7.318;2023-06-14T09:54:15;100814.22;;;24.75;34.81
3917;BME280;1973;50.518;7.318;2023-06-14T09:56:45;100804.47;;;24.86;34.79
3917;BME280;1973;50.518;7.318;2023-06-14T09:59:16;100797.59;;;24.92;34.83
3917;BME280;1973;50.518;7.318;2023-06-14T10:01:45;100804.91;;;24.93;34.54
3917;BME280;1973;50.518;7.318;2023-06-14T10:04:13;100808.44;;;24.98;34.84
3917;BME280;1973;50.518;7.318;2023-06-14T10:06:44;100805.66;;;25.12;35.28
3917;BME280;1973;50.518;7.318;2023-06-14T10:09:12;100796.34;;;25.25;35.23
3917;BME280;1973;50.518;7.318;2023-06-14T10:11:40;100810.03;;;25.32;34.67
3917;BME280;1973;50.518;7.318;2023-06-14T10:14:12;100801.16;;;25.38;34.63
3917;BME280;1973;50.518;7.318;2023-06-14T10:16:45;100798.44;;;25.47;33.89
3917;BME280;1973;50.518;7.318;2023-06-14T10:22:00;100795.41;;;25.43;33.02
3917;BME280;1973;50.518;7.318;2023-06-14T10:24:35;100800.09;;;25.48;34.10
3917;BME280;1973;50.518;7.318;2023-06-14T10:27:06;100793.63;;;25.61;35.01
3917;BME280;1973;50.518;7.318;2023-06-14T10:32:25;100797.13;;;25.94;35.35
3917;BME280;1973;50.518;7.318;2023-06-14T10:34:58;100801.13;;;26.15;34.98
3917;BME280;1973;50.518;7.318;2023-06-14T10:37:25;100798.91;;;26.26;35.33
3917;BME280;1973;50.518;7.318;2023-06-14T10:39:52;100797.19;;;26.38;34.99
3917;BME280;1973;50.518;7.318;2023-06-14T10:42:19;100789.59;;;26.47;34.74
3917;BME280;1973;50.518;7.318;2023-06-14T10:45:04;100800.31;;;26.37;33.26
3917;BME280;1973;50.518;7.318;2023-06-14T10:47:33;100800.78;;;26.16;34.23
3917;BME280;1973;50.518;7.318;2023-06-14T10:52:28;100795.06;;;25.86;34.58
3917;BME280;1973;50.518;7.318;2023-06-14T10:57:37;100802.53;;;26.04;35.49
3917;BME280;1973;50.518;7.318;2023-06-14T11:00:22;100800.59;;;26.27;35.72
3917;BME280;1973;50.518;7.318;2023-06-14T11:03:36;100787.63;;;26.48;33.03
3917;BME280;1973;50.518;7.318;2023-06-14T11:05:58;100779.41;;;26.69;34.83
3917;BME280;1973;50.518;7.318;2023-06-14T11:11:00;100789.06;;;26.98;34.03
3917;BME280;1973;50.518;7.318;2023-06-14T11:13:31;100795.00;;;27.19;33.00
3917;BME280;1973;50.518;7.318;2023-06-14T11:15:58;100780.75;;;27.33;33.08
3917;BME280;1973;50.518;7.318;2023-06-14T11:18:25;100782.72;;;27.32;33.01
3917;BME280;1973;50.518;7.318;2023-06-14T11:20:54;100784.31;;;27.47;33.20
3917;BME280;1973;50.518;7.318;2023-06-14T11:23:21;100776.00;;;27.59;32.99
3917;BME280;1973;50.518;7.318;2023-06-14T11:25:52;100778.00;;;27.58;32.82
3917;BME280;1973;50.518;7.318;2023-06-14T11:28:19;100776.53;;;27.87;32.73
3917;BME280;1973;50.518;7.318;2023-06-14T11:31:10;100779.88;;;28.06;31.88
3917;BME280;1973;50.518;7.318;2023-06-14T11:33:36;100788.25;;;28.11;31.90
3917;BME280;1973;50.518;7.318;2023-06-14T11:36:04;100787.41;;;28.28;31.87
3917;BME280;1973;50.518;7.318;2023-06-14T11:38:37;100782.38;;;28.42;31.75
3917;BME280;1973;50.518;7.318;2023-06-14T11:41:03;100775.69;;;28.55;31.21
3917;BME280;1973;50.518;7.318;2023-06-14T11:43:31;100769.84;;;28.69;30.27
3917;BME280;1973;50.518;7.318;2023-06-14T11:45:59;100779.19;;;28.69;30.53
3917;BME280;1973;50.518;7.318;2023-06-14T11:48:38;100770.00;;;28.81;30.44
3917;BME280;1973;50.518;7.318;2023-06-14T11:51:05;100776.00;;;28.79;30.49
3917;BME280;1973;50.518;7.318;2023-06-14T11:53:32;100772.53;;;28.74;30.99
3917;BME280;1973;50.518;7.318;2023-06-14T11:55:59;100772.81;;;28.81;30.40
3917;BME280;1973;50.518;7.318;2023-06-14T11:58:26;100756.50;;;28.61;30.13
3917;BME280;1973;50.518;7.318;2023-06-14T12:00:53;100765.47;;;28.80;30.81
3917;BME280;1973;50.518;7.318;2023-06-14T12:03:24;100766.63;;;28.87;30.41
3917;BME280;1973;50.518;7.318;2023-06-14T12:06:02;100762.00;;;29.12;30.73
3917;BME280;1973;50.518;7.318;2023-06-14T12:08:33;100771.91;;;28.97;30.04
3917;BME280;1973;50.518;7.318;2023-06-14T12:11:13;100778.88;;;28.71;30.35
3917;BME280;1973;50.518;7.318;2023-06-14T12:13:41;100787.72;;;28.35;30.55
3917;BME280;1973;50.518;7.318;2023-06-14T12:16:08;100780.88;;;28.44;30.85
3917;BME280;1973;50.518;7.318;2023-06-14T12:18:37;100777.69;;;28.72;31.06
3917;BME280;1973;50.518;7.318;2023-06-14T12:21:04;100769.00;;;28.77;30.31
3917;BME280;1973;50.518;7.318;2023-06-14T12:23:49;100771.41;;;29.04;30.91
3917;BME280;1973;50.518;7.318;2023-06-14T12:26:19;100773.47;;;28.86;30.84
3917;BME280;1973;50.518;7.318;2023-06-14T12:28:47;100772.16;;;28.75;30.85
3917;BME280;1973;50.518;7.318;2023-06-14T12:31:15;100763.34;;;28.77;30.87
3917;BME280;1973;50.518;7.318;2023-06-14T12:33:42;100774.81;;;28.89;31.23
3917;BME280;1973;50.518;7.318;2023-06-14T12:36:10;100783.19;;;28.60;30.79
3917;BME280;1973;50.518;7.318;2023-06-14T12:38:37;100784.25;;;28.38;30.96
3917;BME280;1973;50.518;7.318;2023-06-14T12:41:04;100780.25;;;28.22;30.82
3917;BME280;1973;50.518;7.318;2023-06-14T12:43:30;100789.03;;;28.03;31.63
3917;BME280;1973;50.518;7.318;2023-06-14T12:45:57;100792.22;;;28.27;31.42
3917;BME280;1973;50.518;7.318;2023-06-14T12:48:24;100793.03;;;28.62;31.19
3917;BME280;1973;50.518;7.318;2023-06-14T12:50:50;100789.84;;;28.81;31.23
3917;BME280;1973;50.518;7.318;2023-06-14T12:53:17;100793.59;;;29.02;31.53
3917;BME280;1973;50.518;7.318;2023-06-14T12:55:43;100794.56;;;29.15;30.73
3917;BME280;1973;50.518;7.318;2023-06-14T12:58:10;100786.63;;;29.37;30.92
3917;BME280;1973;50.518;7.318;2023-06-14T13:00:39;100792.53;;;29.53;30.41
3917;BME280;1973;50.518;7.318;2023-06-14T13:03:06;100792.34;;;29.58;29.82
3917;BME280;1973;50.518;7.318;2023-06-14T13:05:32;100801.97;;;29.45;30.22
3917;BME280;1973;50.518;7.318;2023-06-14T13:08:00;100791.63;;;29.40;30.33
3917;BME280;1973;50.518;7.318;2023-06-14T13:10:27;100792.31;;;29.37;29.91
3917;BME280;1973;50.518;7.318;2023-06-14T13:12:54;100786.78;;;29.41;30.18
3917;BME280;1973;50.518;7.318;2023-06-14T13:15:21;100798.53;;;29.22;30.56
3917;BME280;1973;50.518;7.318;2023-06-14T13:17:47;100805.00;;;29.31;30.11
3917;BME280;1973;50.518;7.318;2023-06-14T13:20:15;100792.31;;;29.37;29.52
3917;BME280;1973;50.518;7.318;2023-06-14T13:22:46;100805.81;;;29.70;30.26
3917;BME280;1973;50.518;7.318;2023-06-14T13:25:12;100801.28;;;29.98;30.28
3917;BME280;1973;50.518;7.318;2023-06-14T13:27:39;100801.03;;;30.12;29.20
3917;BME280;1973;50.518;7.318;2023-06-14T13:30:06;100808.63;;;29.99;29.61
3917;BME280;1973;50.518;7.318;2023-06-14T13:32:33;100798.00;;;30.08;29.89